createdAt,value
2019-02-26T00:00:56.505Z,3.70
2019-02-26T00:02:04.434Z,3.70
2019-02-26T00:03:11.240Z,3.60
2019-02-26T00:04:20.824Z,3.60
2019-02-26T00:05:28.416Z,3.50
2019-02-26T00:06:34.756Z,3.50
2019-02-26T00:07:41.649Z,3.50
2019-02-26T00:08:51.276Z,3.40
2019-02-26T00:09:59.461Z,3.40
2019-02-26T00:11:08.323Z,3.40
2019-02-26T00:12:14.400Z,3.30
2019-02-26T00:13:21.167Z,3.30
2019-02-26T00:14:30.252Z,3.30
2019-02-26T00:15:38.105Z,3.20
2019-02-26T00:16:46.663Z,3.20
2019-02-26T00:17:53.134Z,3.20
2019-02-26T00:19:02.619Z,3.20
2019-02-26T00:20:10.917Z,3.20
2019-02-26T00:21:17.628Z,3.20
2019-02-26T00:22:24.321Z,3.10
2019-02-26T00:23:31.081Z,3.10
2019-02-26T00:24:39.749Z,3.10
2019-02-26T00:25:46.233Z,3.10
2019-02-26T00:26:52.947Z,3.20
2019-02-26T00:27:59.606Z,3.10
2019-02-26T00:29:08.353Z,3.20
2019-02-26T00:30:16.754Z,3.20
2019-02-26T00:31:24.298Z,3.20
2019-02-26T00:32:32.354Z,3.20
2019-02-26T00:33:40.495Z,3.20
2019-02-26T00:34:47.469Z,3.20
2019-02-26T00:35:54.207Z,3.20
2019-02-26T00:37:01.802Z,3.20
2019-02-26T00:38:11.077Z,3.20
2019-02-26T00:39:18.095Z,3.10
2019-02-26T00:40:25.114Z,3.10
2019-02-26T00:41:33.541Z,3.10
2019-02-26T00:42:40.505Z,3.10
2019-02-26T00:43:51.197Z,3.00
2019-02-26T00:44:58.277Z,2.90
2019-02-26T00:46:05.587Z,2.90
2019-02-26T00:47:13.236Z,2.90
2019-02-26T00:48:20.323Z,3.00
2019-02-26T00:49:28.488Z,2.90
2019-02-26T00:50:37.431Z,2.90
2019-02-26T00:51:46.506Z,2.90
2019-02-26T00:52:56.492Z,2.90
2019-02-26T00:54:02.380Z,2.90
2019-02-26T00:55:10.464Z,2.80
2019-02-26T00:56:17.203Z,2.80
2019-02-26T00:57:27.140Z,2.80
2019-02-26T00:58:37.049Z,2.70
2019-02-26T00:59:43.613Z,2.80
2019-02-26T01:00:49.931Z,2.70
2019-02-26T01:01:59.302Z,2.70
2019-02-26T01:03:06.094Z,2.80
2019-02-26T01:04:14.055Z,2.80
2019-02-26T01:05:20.768Z,2.80
2019-02-26T01:06:28.982Z,2.80
2019-02-26T01:07:36.019Z,2.80
2019-02-26T01:08:44.775Z,2.70
2019-02-26T01:09:52.481Z,2.70
2019-02-26T01:11:01.562Z,2.70
2019-02-26T01:12:09.192Z,2.70
2019-02-26T01:13:17.270Z,2.70
2019-02-26T01:14:24.691Z,2.70
2019-02-26T01:15:31.441Z,2.70
2019-02-26T01:16:39.410Z,2.70
2019-02-26T01:17:46.606Z,2.70
2019-02-26T01:18:53.290Z,2.70
2019-02-26T01:20:00.992Z,2.60
2019-02-26T01:21:08.758Z,2.60
2019-02-26T01:22:15.454Z,2.60
2019-02-26T01:23:24.246Z,2.60
2019-02-26T01:24:32.704Z,2.60
2019-02-26T01:25:39.432Z,2.60
2019-02-26T01:26:46.272Z,2.60
2019-02-26T01:27:53.276Z,2.60
2019-02-26T01:29:01.375Z,2.50
2019-02-26T01:30:10.256Z,2.50
2019-02-26T01:31:16.980Z,2.50
2019-02-26T01:32:24.930Z,2.40
2019-02-26T01:33:32.124Z,2.40
2019-02-26T01:34:42.766Z,2.40
2019-02-26T01:35:52.717Z,2.40
2019-02-26T01:37:00.814Z,2.40
2019-02-26T01:38:07.682Z,2.30
2019-02-26T01:39:16.226Z,2.30
2019-02-26T01:40:25.624Z,2.20
2019-02-26T01:41:31.952Z,2.20
2019-02-26T01:42:39.199Z,2.20
2019-02-26T01:43:46.143Z,2.20
2019-02-26T01:44:52.938Z,2.20
2019-02-26T01:45:59.582Z,2.20
2019-02-26T01:47:06.668Z,2.10
2019-02-26T01:48:16.733Z,2.00
2019-02-26T01:49:23.577Z,2.00
2019-02-26T01:50:31.494Z,2.00
2019-02-26T01:51:38.732Z,1.90
2019-02-26T01:52:45.741Z,2.00
2019-02-26T01:53:53.684Z,1.90
2019-02-26T01:55:02.728Z,2.00
2019-02-26T01:56:09.165Z,1.90
2019-02-26T01:57:17.333Z,2.00
2019-02-26T01:58:24.503Z,1.90
2019-02-26T01:59:31.722Z,1.90
2019-02-26T02:00:40.932Z,1.90
2019-02-26T02:01:49.695Z,1.90
2019-02-26T02:02:56.725Z,1.90
2019-02-26T02:04:03.448Z,1.90
2019-02-26T02:05:10.680Z,1.90
2019-02-26T02:06:18.226Z,1.90
2019-02-26T02:07:26.037Z,1.90
2019-02-26T02:08:33.742Z,1.90
2019-02-26T02:09:41.152Z,1.90
2019-02-26T02:10:49.647Z,1.90
2019-02-26T02:11:57.395Z,1.90
2019-02-26T02:13:07.084Z,1.90
2019-02-26T02:14:16.658Z,1.90
2019-02-26T02:15:23.737Z,1.90
2019-02-26T02:16:31.466Z,1.90
2019-02-26T02:17:40.126Z,1.90
2019-02-26T02:18:48.845Z,2.00
2019-02-26T02:19:55.246Z,2.00
2019-02-26T02:21:01.980Z,2.10
2019-02-26T02:22:09.974Z,2.10
2019-02-26T02:23:19.387Z,2.10
2019-02-26T02:24:26.412Z,2.10
2019-02-26T02:25:35.638Z,2.10
2019-02-26T02:26:45.324Z,2.10
2019-02-26T02:27:52.529Z,2.10
2019-02-26T02:28:59.267Z,2.10
2019-02-26T02:30:07.550Z,2.00
2019-02-26T02:31:14.612Z,2.10
2019-02-26T02:32:24.113Z,2.10
2019-02-26T02:33:32.082Z,2.00
2019-02-26T02:34:39.979Z,2.10
2019-02-26T02:35:47.778Z,2.10
2019-02-26T02:36:54.434Z,2.10
2019-02-26T02:38:02.843Z,2.10
2019-02-26T02:39:13.036Z,2.20
2019-02-26T02:40:18.455Z,2.20
2019-02-26T02:41:25.233Z,2.10
2019-02-26T02:42:31.905Z,2.10
2019-02-26T02:43:40.042Z,2.10
2019-02-26T02:44:49.223Z,2.10
2019-02-26T02:45:56.474Z,2.10
2019-02-26T02:47:06.081Z,2.00
2019-02-26T02:48:14.203Z,2.00
2019-02-26T02:49:21.145Z,2.00
2019-02-26T02:50:27.796Z,1.90
2019-02-26T02:51:36.468Z,2.00
2019-02-26T02:52:43.476Z,1.90
2019-02-26T02:53:51.093Z,1.90
2019-02-26T02:54:58.621Z,1.90
2019-02-26T02:56:06.355Z,1.80
2019-02-26T02:57:13.998Z,1.80
2019-02-26T02:58:23.096Z,1.80
2019-02-26T02:59:30.999Z,1.80
2019-02-26T03:00:38.558Z,1.80
2019-02-26T03:01:48.349Z,1.80
2019-02-26T03:02:56.163Z,1.70
2019-02-26T03:04:02.758Z,1.70
2019-02-26T03:05:10.749Z,1.70
2019-02-26T03:06:17.451Z,1.70
2019-02-26T03:07:26.726Z,1.70
2019-02-26T03:08:32.568Z,1.70
2019-02-26T03:09:40.698Z,1.70
2019-02-26T03:10:48.126Z,1.70
2019-02-26T03:11:55.195Z,1.70
2019-02-26T03:13:03.004Z,1.70
2019-02-26T03:14:10.940Z,1.70
2019-02-26T03:15:18.520Z,1.70
2019-02-26T03:16:27.175Z,1.80
2019-02-26T03:17:33.914Z,1.80
2019-02-26T03:18:40.714Z,1.80
2019-02-26T03:19:47.362Z,1.70
2019-02-26T03:20:56.599Z,1.80
2019-02-26T03:22:03.596Z,1.80
2019-02-26T03:23:15.127Z,1.80
2019-02-26T03:24:19.002Z,1.80
2019-02-26T03:25:29.011Z,1.80
2019-02-26T03:26:35.108Z,1.80
2019-02-26T03:27:42.631Z,1.80
2019-02-26T03:28:51.382Z,1.80
2019-02-26T03:29:59.088Z,1.90
2019-02-26T03:31:06.235Z,1.90
2019-02-26T03:32:13.015Z,1.90
2019-02-26T03:33:19.797Z,1.90
2019-02-26T03:34:26.700Z,1.90
2019-02-26T03:35:33.442Z,1.90
2019-02-26T03:36:42.830Z,1.90
2019-02-26T03:37:51.441Z,1.90
2019-02-26T03:38:59.788Z,1.90
2019-02-26T03:40:08.202Z,1.90
2019-02-26T03:41:16.611Z,1.90
2019-02-26T03:42:24.159Z,1.90
2019-02-26T03:43:31.396Z,1.90
2019-02-26T03:44:39.289Z,1.90
2019-02-26T03:45:48.082Z,1.80
2019-02-26T03:46:54.668Z,1.80
2019-02-26T03:48:01.698Z,1.80
2019-02-26T03:49:08.586Z,1.70
2019-02-26T03:50:16.996Z,1.70
2019-02-26T03:51:24.005Z,1.70
2019-02-26T03:52:32.097Z,1.60
2019-02-26T03:53:39.815Z,1.60
2019-02-26T03:54:48.616Z,1.60
2019-02-26T03:55:59.588Z,1.60
2019-02-26T03:57:04.956Z,1.60
2019-02-26T03:58:11.621Z,1.60
2019-02-26T03:59:18.289Z,1.60
2019-02-26T04:00:25.333Z,1.50
2019-02-26T04:01:32.007Z,1.60
2019-02-26T04:02:39.942Z,1.60
2019-02-26T04:03:47.335Z,1.50
2019-02-26T04:04:56.553Z,1.60
2019-02-26T04:06:03.138Z,1.50
2019-02-26T04:07:11.550Z,1.60
2019-02-26T04:08:20.085Z,1.60
2019-02-26T04:09:27.137Z,1.60
2019-02-26T04:10:33.808Z,1.60
2019-02-26T04:11:44.854Z,1.60
2019-02-26T04:12:52.350Z,1.60
2019-02-26T04:13:57.934Z,1.60
2019-02-26T04:15:05.080Z,1.70
2019-02-26T04:16:12.146Z,1.70
2019-02-26T04:17:23.110Z,1.70
2019-02-26T04:18:27.766Z,1.70
2019-02-26T04:19:34.902Z,1.70
2019-02-26T04:20:44.326Z,1.60
2019-02-26T04:22:31.469Z,1.60
2019-02-26T04:23:39.704Z,1.50
2019-02-26T04:24:47.452Z,1.40
2019-02-26T04:27:00.528Z,1.40
2019-02-26T04:28:58.341Z,1.40
2019-02-26T04:30:47.071Z,1.30
2019-02-26T04:32:46.298Z,1.30
2019-02-26T04:34:59.621Z,1.30
2019-02-26T04:37:12.867Z,1.20
2019-02-26T04:39:22.240Z,1.20
2019-02-26T04:41:32.570Z,1.20
2019-02-26T04:43:42.124Z,1.20
2019-02-26T04:45:48.732Z,1.20
2019-02-26T04:47:21.943Z,1.20
2019-02-26T04:48:32.529Z,1.20
2019-02-26T04:49:42.731Z,1.20
2019-02-26T04:50:48.057Z,1.20
2019-02-26T04:51:54.779Z,1.20
2019-02-26T04:53:04.855Z,1.20
2019-02-26T04:54:10.091Z,1.10
2019-02-26T04:55:16.745Z,1.10
2019-02-26T04:56:24.085Z,1.10
2019-02-26T04:57:31.154Z,1.10
2019-02-26T04:58:41.886Z,1.10
2019-02-26T04:59:47.159Z,1.10
2019-02-26T05:00:54.113Z,1.20
2019-02-26T05:02:01.107Z,1.20
2019-02-26T05:03:11.213Z,1.20
2019-02-26T05:04:16.970Z,1.10
2019-02-26T05:05:25.848Z,1.20
2019-02-26T05:06:32.439Z,1.20
2019-02-26T05:07:43.808Z,1.20
2019-02-26T05:08:49.083Z,1.20
2019-02-26T05:09:56.975Z,1.20
2019-02-26T05:11:04.537Z,1.10
2019-02-26T05:12:11.240Z,1.10
2019-02-26T05:13:17.966Z,1.10
2019-02-26T05:14:24.676Z,1.10
2019-02-26T05:15:33.244Z,1.10
2019-02-26T05:16:40.779Z,1.00
2019-02-26T05:17:47.961Z,0.90
2019-02-26T05:18:58.273Z,1.00
2019-02-26T05:20:06.293Z,0.90
2019-02-26T05:21:13.027Z,0.90
2019-02-26T05:22:22.644Z,0.90
2019-02-26T05:23:31.062Z,0.80
2019-02-26T05:24:38.674Z,0.80
2019-02-26T05:25:45.140Z,0.80
2019-02-26T05:26:51.826Z,0.80
2019-02-26T05:27:58.480Z,0.70
2019-02-26T05:29:12.175Z,0.70
2019-02-26T05:30:20.073Z,0.70
2019-02-26T05:31:29.777Z,0.70
2019-02-26T05:32:36.364Z,0.70
2019-02-26T05:33:43.059Z,0.70
2019-02-26T05:34:50.846Z,0.70
2019-02-26T05:35:57.680Z,0.70
2019-02-26T05:37:07.465Z,0.70
2019-02-26T05:38:13.193Z,0.70
2019-02-26T05:39:21.064Z,0.70
2019-02-26T05:40:28.210Z,0.70
2019-02-26T05:41:35.250Z,0.70
2019-02-26T05:42:42.338Z,0.70
2019-02-26T05:43:52.188Z,0.80
2019-02-26T05:45:00.638Z,0.80
2019-02-26T05:46:07.235Z,0.80
2019-02-26T05:47:16.686Z,0.80
2019-02-26T05:48:23.807Z,0.80
2019-02-26T05:49:32.208Z,0.70
2019-02-26T05:50:43.861Z,0.70
2019-02-26T05:51:48.791Z,0.70
2019-02-26T05:52:57.983Z,0.70
2019-02-26T05:54:07.770Z,0.70
2019-02-26T05:55:16.401Z,0.70
2019-02-26T05:56:22.902Z,0.70
2019-02-26T05:57:32.616Z,0.70
2019-02-26T05:58:41.929Z,0.70
2019-02-26T05:59:49.510Z,0.70
2019-02-26T06:00:56.191Z,0.70
2019-02-26T06:02:03.234Z,0.70
2019-02-26T06:03:12.258Z,0.70
2019-02-26T06:04:20.662Z,0.70
2019-02-26T06:05:27.816Z,0.60
2019-02-26T06:06:35.238Z,0.60
2019-02-26T06:07:41.964Z,0.60
2019-02-26T06:08:49.008Z,0.60
2019-02-26T06:09:57.249Z,0.50
2019-02-26T06:11:04.490Z,0.60
2019-02-26T06:12:11.257Z,0.50
2019-02-26T06:13:18.026Z,0.50
2019-02-26T06:14:27.206Z,0.60
2019-02-26T06:15:34.160Z,0.60
2019-02-26T06:16:43.145Z,0.50
2019-02-26T06:17:51.478Z,0.60
2019-02-26T06:18:58.781Z,0.50
2019-02-26T06:20:23.420Z,0.50
2019-02-26T06:21:29.591Z,0.50
2019-02-26T06:22:36.280Z,0.50
2019-02-26T06:23:43.982Z,0.60
2019-02-26T06:24:54.987Z,0.60
2019-02-26T06:26:02.347Z,0.50
2019-02-26T06:27:13.063Z,0.60
2019-02-26T06:28:18.608Z,0.60
2019-02-26T06:29:27.398Z,0.60
2019-02-26T06:30:35.072Z,0.60
2019-02-26T06:31:44.194Z,0.60
2019-02-26T06:32:50.897Z,0.60
2019-02-26T06:34:01.472Z,0.60
2019-02-26T06:35:11.008Z,0.70
2019-02-26T06:36:18.606Z,0.80
2019-02-26T06:37:28.430Z,0.80
2019-02-26T06:38:35.236Z,0.80
2019-02-26T06:39:41.950Z,0.80
2019-02-26T06:40:49.544Z,0.90
2019-02-26T06:41:57.400Z,0.90
2019-02-26T06:43:04.430Z,0.90
2019-02-26T06:44:11.429Z,0.90
2019-02-26T06:45:18.097Z,0.90
2019-02-26T06:46:26.964Z,0.90
2019-02-26T06:47:33.869Z,0.90
2019-02-26T06:48:40.896Z,0.90
2019-02-26T06:49:48.567Z,0.90
2019-02-26T06:50:57.536Z,0.90
2019-02-26T06:52:06.479Z,0.90
2019-02-26T06:53:16.124Z,0.90
2019-02-26T06:54:25.061Z,1.00
2019-02-26T06:55:31.429Z,1.00
2019-02-26T06:56:43.309Z,1.00
2019-02-26T06:57:52.179Z,1.10
2019-02-26T06:58:55.773Z,1.10
2019-02-26T07:00:04.241Z,1.20
2019-02-26T07:01:12.021Z,1.20
2019-02-26T07:02:19.925Z,1.30
2019-02-26T07:03:26.603Z,1.30
2019-02-26T07:04:33.284Z,1.30
2019-02-26T07:05:42.367Z,1.40
2019-02-26T07:06:48.717Z,1.40
2019-02-26T07:07:57.049Z,1.50
2019-02-26T07:09:04.741Z,1.60
2019-02-26T07:10:15.963Z,1.60
2019-02-26T07:11:25.608Z,1.70
2019-02-26T07:12:30.480Z,1.60
2019-02-26T07:13:39.132Z,1.70
2019-02-26T07:14:46.462Z,1.70
2019-02-26T07:15:53.954Z,1.70
2019-02-26T07:17:00.702Z,1.70
2019-02-26T07:18:10.275Z,1.80
2019-02-26T07:19:16.747Z,1.80
2019-02-26T07:20:33.674Z,1.80
2019-02-26T07:21:32.904Z,1.80
2019-02-26T07:22:41.497Z,1.90
2019-02-26T07:23:48.741Z,2.00
2019-02-26T07:24:56.597Z,2.10
2019-02-26T07:26:03.556Z,2.10
2019-02-26T07:27:11.615Z,2.10
2019-02-26T07:28:20.619Z,2.10
2019-02-26T07:29:30.712Z,2.10
2019-02-26T07:30:37.594Z,2.10
2019-02-26T07:31:44.192Z,2.20
2019-02-26T07:32:50.894Z,2.20
2019-02-26T07:33:58.207Z,2.20
2019-02-26T07:35:08.748Z,2.30
2019-02-26T07:36:18.323Z,2.30
2019-02-26T07:37:25.041Z,2.40
2019-02-26T07:38:40.578Z,2.40
2019-02-26T07:39:41.932Z,2.50
2019-02-26T07:40:48.837Z,2.50
2019-02-26T07:41:55.878Z,2.60
2019-02-26T07:43:04.890Z,2.70
2019-02-26T07:44:15.335Z,2.80
2019-02-26T07:45:22.262Z,2.80
2019-02-26T07:46:28.193Z,2.90
2019-02-26T07:47:36.382Z,2.90
2019-02-26T07:48:43.285Z,3.00
2019-02-26T07:49:50.246Z,3.00
2019-02-26T07:50:57.272Z,3.10
2019-02-26T07:52:06.706Z,3.10
2019-02-26T07:53:14.525Z,3.20
2019-02-26T07:54:21.758Z,3.20
2019-02-26T07:55:32.203Z,3.30
2019-02-26T07:56:37.103Z,3.30
2019-02-26T07:57:45.553Z,3.40
2019-02-26T07:58:56.961Z,3.50
2019-02-26T08:00:01.362Z,3.50
2019-02-26T08:01:08.287Z,3.60
2019-02-26T08:02:14.969Z,3.60
2019-02-26T08:03:24.325Z,3.70
2019-02-26T08:04:32.321Z,3.80
2019-02-26T08:05:39.728Z,3.90
2019-02-26T08:06:46.719Z,3.90
2019-02-26T08:07:54.433Z,4.00
2019-02-26T08:09:04.632Z,4.10
2019-02-26T08:10:16.790Z,4.10
2019-02-26T08:11:23.199Z,4.20
2019-02-26T08:12:32.696Z,4.20
2019-02-26T08:13:39.353Z,4.30
2019-02-26T08:14:47.727Z,4.40
2019-02-26T08:15:55.838Z,4.50
2019-02-26T08:17:03.940Z,4.50
2019-02-26T08:18:11.819Z,4.60
2019-02-26T08:19:18.474Z,4.70
2019-02-26T08:20:25.164Z,4.80
2019-02-26T08:21:32.259Z,4.80
2019-02-26T08:22:39.687Z,4.90
2019-02-26T08:23:48.240Z,5.00
2019-02-26T08:24:56.296Z,5.00
2019-02-26T08:26:03.554Z,5.10
2019-02-26T08:27:11.619Z,5.20
2019-02-26T08:28:22.127Z,5.30
2019-02-26T08:29:30.809Z,5.30
2019-02-26T08:30:40.234Z,5.40
2019-02-26T08:31:47.486Z,5.50
2019-02-26T08:32:56.358Z,5.50
2019-02-26T08:34:02.770Z,5.60
2019-02-26T08:35:10.201Z,5.60
2019-02-26T08:36:17.247Z,5.70
2019-02-26T08:37:24.357Z,5.70
2019-02-26T08:38:31.054Z,5.80
2019-02-26T08:39:38.680Z,5.90
2019-02-26T08:40:46.191Z,5.90
2019-02-26T08:42:09.444Z,6.00
2019-02-26T08:43:16.133Z,6.10
2019-02-26T08:44:23.488Z,6.20
2019-02-26T08:45:31.149Z,6.30
2019-02-26T08:46:39.876Z,6.40
2019-02-26T08:47:46.891Z,6.40
2019-02-26T08:48:53.580Z,6.50
2019-02-26T08:50:03.612Z,6.60
2019-02-26T08:51:13.635Z,6.60
2019-02-26T08:52:19.920Z,6.70
2019-02-26T08:53:28.855Z,6.80
2019-02-26T08:54:35.871Z,6.80
2019-02-26T08:55:42.773Z,6.80
2019-02-26T08:56:49.408Z,6.90
2019-02-26T08:57:56.620Z,6.90
2019-02-26T08:59:03.683Z,7.00
2019-02-26T09:00:19.262Z,7.00
2019-02-26T09:01:26.291Z,7.10
2019-02-26T09:02:33.322Z,7.10
2019-02-26T09:03:40.943Z,7.20
2019-02-26T09:04:48.152Z,7.30
2019-02-26T09:05:56.998Z,7.30
2019-02-26T09:07:03.554Z,7.40
2019-02-26T09:08:12.853Z,7.50
2019-02-26T09:09:21.000Z,7.60
2019-02-26T09:10:27.827Z,7.70
2019-02-26T09:11:36.378Z,7.80
2019-02-26T09:12:44.162Z,7.80
2019-02-26T09:13:51.670Z,7.90
2019-02-26T09:14:58.642Z,8.00
2019-02-26T09:16:07.856Z,8.10
2019-02-26T09:17:18.729Z,8.20
2019-02-26T09:18:27.434Z,8.30
2019-02-26T09:19:33.169Z,8.30
2019-02-26T09:20:40.195Z,8.40
2019-02-26T09:21:47.788Z,8.50
2019-02-26T09:22:56.499Z,8.50
2019-02-26T09:24:07.098Z,8.60
2019-02-26T09:25:13.422Z,8.60
2019-02-26T09:26:20.186Z,8.70
2019-02-26T09:27:27.205Z,8.70
2019-02-26T09:28:35.738Z,8.80
2019-02-26T09:29:48.349Z,8.90
2019-02-26T09:30:50.852Z,8.90
2019-02-26T09:31:57.547Z,9.00
2019-02-26T09:33:06.391Z,9.10
2019-02-26T09:34:13.392Z,9.20
2019-02-26T09:35:25.266Z,9.30
2019-02-26T09:36:29.452Z,9.30
2019-02-26T09:37:36.751Z,9.40
2019-02-26T09:38:44.319Z,9.50
2019-02-26T09:39:54.185Z,9.60
2019-02-26T09:41:01.061Z,9.70
2019-02-26T09:42:09.190Z,9.80
2019-02-26T09:43:17.347Z,9.90
2019-02-26T09:44:26.177Z,9.90
2019-02-26T09:45:34.181Z,10.00
2019-02-26T09:46:43.356Z,10.00
2019-02-26T09:47:50.215Z,10.00
2019-02-26T09:48:58.603Z,10.10
2019-02-26T09:50:07.967Z,10.20
2019-02-26T09:51:16.491Z,10.30
2019-02-26T09:52:27.538Z,10.40
2019-02-26T09:53:32.987Z,10.40
2019-02-26T09:54:42.681Z,10.50
2019-02-26T09:55:48.094Z,10.60
2019-02-26T09:56:55.470Z,10.60
2019-02-26T09:58:02.663Z,10.70
2019-02-26T09:59:10.303Z,10.80
2019-02-26T10:00:22.571Z,10.80
2019-02-26T10:01:27.770Z,10.90
2019-02-26T10:02:34.454Z,11.00
2019-02-26T10:03:41.559Z,11.00
2019-02-26T10:04:49.543Z,11.10
2019-02-26T10:05:57.872Z,11.20
2019-02-26T10:07:07.524Z,11.20
2019-02-26T10:08:13.497Z,11.30
2019-02-26T10:09:20.708Z,11.40
2019-02-26T10:10:29.146Z,11.50
2019-02-26T10:11:35.878Z,11.50
2019-02-26T10:12:42.930Z,11.50
2019-02-26T10:13:51.216Z,11.60
2019-02-26T10:15:00.167Z,11.70
2019-02-26T10:16:08.935Z,11.70
2019-02-26T10:17:17.194Z,11.80
2019-02-26T10:18:25.654Z,11.80
2019-02-26T10:19:33.731Z,11.80
2019-02-26T10:20:43.310Z,11.90
2019-02-26T10:21:50.059Z,12.00
2019-02-26T10:22:59.981Z,12.10
2019-02-26T10:24:05.078Z,12.10
2019-02-26T10:25:12.841Z,12.30
2019-02-26T10:26:19.525Z,12.30
2019-02-26T10:27:31.038Z,12.40
2019-02-26T10:28:37.293Z,12.50
2019-02-26T10:29:45.047Z,12.50
2019-02-26T10:30:54.419Z,12.60
2019-02-26T10:32:00.655Z,12.60
2019-02-26T10:33:09.807Z,12.60
2019-02-26T10:34:19.098Z,12.70
2019-02-26T10:35:33.227Z,12.80
2019-02-26T10:36:37.800Z,12.90
2019-02-26T10:37:51.825Z,13.00
2019-02-26T10:39:00.239Z,13.00
2019-02-26T10:40:09.516Z,13.00
2019-02-26T10:41:16.159Z,13.10
2019-02-26T10:42:22.844Z,13.30
2019-02-26T10:43:29.967Z,13.30
2019-02-26T10:44:37.582Z,13.40
2019-02-26T10:45:47.291Z,13.40
2019-02-26T10:46:53.062Z,13.40
2019-02-26T10:48:01.655Z,13.30
2019-02-26T10:49:08.138Z,13.40
2019-02-26T10:50:19.485Z,13.30
2019-02-26T10:51:27.050Z,13.40
2019-02-26T10:52:34.440Z,13.40
2019-02-26T10:53:41.214Z,13.50
2019-02-26T10:54:47.978Z,13.50
2019-02-26T10:55:54.657Z,13.60
2019-02-26T10:57:04.515Z,13.60
2019-02-26T10:58:12.913Z,13.70
2019-02-26T10:59:19.588Z,13.70
2019-02-26T11:00:31.203Z,13.70
2019-02-26T11:01:36.838Z,13.70
2019-02-26T11:02:46.000Z,13.70
2019-02-26T11:03:55.075Z,13.80
2019-02-26T11:05:01.214Z,13.80
2019-02-26T11:06:09.910Z,13.90
2019-02-26T11:07:16.363Z,13.90
2019-02-26T11:08:26.635Z,13.90
2019-02-26T11:09:32.040Z,13.90
2019-02-26T11:10:41.816Z,13.90
2019-02-26T11:11:47.255Z,14.00
2019-02-26T11:12:56.264Z,14.00
2019-02-26T11:14:05.133Z,14.00
2019-02-26T11:15:12.334Z,13.90
2019-02-26T11:16:25.224Z,14.00
2019-02-26T11:17:28.985Z,14.20
2019-02-26T11:18:37.384Z,14.30
2019-02-26T11:19:45.329Z,14.20
2019-02-26T11:20:55.406Z,14.20
2019-02-26T11:22:03.879Z,14.20
2019-02-26T11:23:11.976Z,14.30
2019-02-26T11:24:17.715Z,14.30
2019-02-26T11:25:27.186Z,14.30
2019-02-26T11:26:35.203Z,14.40
2019-02-26T11:27:43.477Z,14.40
2019-02-26T11:28:50.556Z,14.50
2019-02-26T11:29:59.605Z,14.40
2019-02-26T11:31:08.870Z,14.50
2019-02-26T11:32:15.767Z,14.50
2019-02-26T11:33:22.936Z,14.50
2019-02-26T11:34:32.771Z,14.60
2019-02-26T11:35:39.641Z,14.60
2019-02-26T11:36:46.970Z,14.60
2019-02-26T11:37:55.377Z,14.60
2019-02-26T11:39:04.272Z,14.70
2019-02-26T11:40:13.578Z,14.80
2019-02-26T11:41:20.460Z,14.80
2019-02-26T11:42:28.738Z,14.80
2019-02-26T11:43:36.302Z,14.90
2019-02-26T11:44:43.344Z,14.90
2019-02-26T11:45:50.308Z,14.90
2019-02-26T11:46:57.366Z,14.90
2019-02-26T11:48:06.115Z,15.00
2019-02-26T11:49:16.337Z,15.00
2019-02-26T11:50:26.980Z,15.10
2019-02-26T11:51:37.064Z,15.10
2019-02-26T11:52:40.158Z,15.10
2019-02-26T11:53:46.971Z,15.10
2019-02-26T11:54:55.853Z,15.10
2019-02-26T11:56:03.052Z,15.10
2019-02-26T11:57:11.021Z,15.10
2019-02-26T11:58:19.885Z,15.10
2019-02-26T11:59:26.663Z,15.10
2019-02-26T12:00:52.947Z,15.20
2019-02-26T12:02:01.347Z,15.20
2019-02-26T12:03:08.812Z,15.30
2019-02-26T12:04:17.020Z,15.40
2019-02-26T12:05:31.456Z,15.40
2019-02-26T12:06:33.335Z,15.50
2019-02-26T12:07:40.344Z,15.50
2019-02-26T12:08:47.932Z,15.60
2019-02-26T12:09:57.768Z,15.60
2019-02-26T12:11:06.590Z,15.70
2019-02-26T12:12:12.340Z,15.80
2019-02-26T12:13:22.222Z,15.90
2019-02-26T12:14:28.719Z,15.90
2019-02-26T12:15:36.287Z,16.00
2019-02-26T12:16:43.855Z,16.10
2019-02-26T12:17:51.761Z,16.10
2019-02-26T12:19:01.318Z,16.10
2019-02-26T12:20:12.129Z,16.10
2019-02-26T12:21:19.127Z,16.20
2019-02-26T12:22:27.886Z,16.10
2019-02-26T12:23:36.746Z,16.20
2019-02-26T12:24:47.818Z,16.20
2019-02-26T12:25:55.519Z,16.20
2019-02-26T12:27:02.886Z,16.30
2019-02-26T12:28:11.837Z,16.30
2019-02-26T12:29:20.491Z,16.40
2019-02-26T12:30:26.994Z,16.40
2019-02-26T12:31:36.373Z,16.50
2019-02-26T12:32:45.504Z,16.50
2019-02-26T12:33:51.703Z,16.50
2019-02-26T12:34:58.704Z,16.50
2019-02-26T12:36:07.405Z,16.60
2019-02-26T12:37:14.463Z,16.60
2019-02-26T12:38:21.533Z,16.70
2019-02-26T12:39:31.373Z,16.70
2019-02-26T12:40:37.866Z,16.60
2019-02-26T12:41:47.981Z,16.70
2019-02-26T12:42:54.207Z,16.70
2019-02-26T12:44:02.057Z,16.70
2019-02-26T12:45:13.591Z,16.70
2019-02-26T12:46:21.823Z,16.80
2019-02-26T12:47:28.440Z,16.70
2019-02-26T12:48:40.463Z,16.70
2019-02-26T12:49:46.086Z,16.60
2019-02-26T12:50:55.373Z,16.70
2019-02-26T12:52:03.266Z,16.60
2019-02-26T12:53:14.961Z,16.70
2019-02-26T12:54:20.196Z,16.70
2019-02-26T12:55:31.681Z,16.70
2019-02-26T12:56:37.356Z,16.70
2019-02-26T12:57:47.249Z,16.80
2019-02-26T12:58:54.596Z,16.80
2019-02-26T13:00:01.579Z,16.80
2019-02-26T13:01:08.620Z,16.80
2019-02-26T13:02:17.017Z,16.90
2019-02-26T13:03:24.062Z,17.00
2019-02-26T13:04:31.187Z,17.00
2019-02-26T13:05:39.280Z,17.00
2019-02-26T13:06:48.412Z,17.00
2019-02-26T13:07:55.022Z,17.00
2019-02-26T13:09:03.904Z,17.00
2019-02-26T13:10:15.066Z,17.00
2019-02-26T13:11:24.982Z,17.00
2019-02-26T13:12:32.387Z,16.90
2019-02-26T13:13:38.972Z,16.90
2019-02-26T13:14:47.510Z,17.00
2019-02-26T13:15:54.494Z,17.00
2019-02-26T13:17:01.840Z,17.00
2019-02-26T13:18:08.768Z,17.00
2019-02-26T13:19:21.391Z,17.00
2019-02-26T13:20:25.166Z,17.00
2019-02-26T13:21:32.404Z,17.00
2019-02-26T13:22:45.425Z,17.00
2019-02-26T13:23:47.760Z,17.00
2019-02-26T13:24:54.825Z,17.00
2019-02-26T13:26:03.731Z,16.90
2019-02-26T13:27:10.286Z,16.90
2019-02-26T13:28:17.433Z,16.90
2019-02-26T13:29:25.296Z,16.90
2019-02-26T13:30:32.514Z,16.80
2019-02-26T13:31:42.541Z,16.80
2019-02-26T13:32:56.273Z,16.80
2019-02-26T13:33:56.469Z,16.80
2019-02-26T13:35:07.436Z,16.80
2019-02-26T13:36:12.320Z,16.80
2019-02-26T13:37:19.042Z,16.80
2019-02-26T13:38:33.925Z,16.80
2019-02-26T13:39:38.387Z,16.80
2019-02-26T13:40:43.400Z,16.80
2019-02-26T13:41:54.403Z,16.90
2019-02-26T13:44:07.297Z,16.80
2019-02-26T13:45:17.711Z,16.80
2019-02-26T13:46:24.387Z,16.90
2019-02-26T13:47:31.120Z,16.80
2019-02-26T13:48:38.471Z,16.90
2019-02-26T13:49:45.586Z,16.80
2019-02-26T13:50:53.061Z,16.80
2019-02-26T13:52:00.534Z,16.80
2019-02-26T13:53:07.221Z,16.80
2019-02-26T13:54:13.915Z,16.70
2019-02-26T13:55:20.588Z,16.70
2019-02-26T13:56:27.699Z,16.70
2019-02-26T13:57:34.660Z,16.60
2019-02-26T13:58:41.398Z,16.60
2019-02-26T13:59:48.359Z,16.60
2019-02-26T14:00:55.103Z,16.60
2019-02-26T14:02:02.070Z,16.60
2019-02-26T14:03:08.796Z,16.60
2019-02-26T14:04:16.075Z,16.60
2019-02-26T14:05:23.059Z,16.60
2019-02-26T14:06:30.210Z,16.50
2019-02-26T14:07:36.904Z,16.40
2019-02-26T14:08:43.649Z,16.40
2019-02-26T14:09:50.308Z,16.40
2019-02-26T14:10:56.984Z,16.40
2019-02-26T14:12:04.063Z,16.30
2019-02-26T14:13:11.338Z,16.20
2019-02-26T14:14:18.166Z,16.20
2019-02-26T14:15:26.000Z,16.20
2019-02-26T14:16:32.870Z,16.20
2019-02-26T14:17:39.793Z,16.10
2019-02-26T14:18:48.211Z,16.20
2019-02-26T14:19:55.405Z,16.20
2019-02-26T14:21:02.605Z,16.40
2019-02-26T14:22:09.827Z,16.40
2019-02-26T14:23:17.065Z,16.30
2019-02-26T14:24:24.479Z,16.30
2019-02-26T14:25:31.535Z,16.30
2019-02-26T14:26:39.003Z,16.30
2019-02-26T14:27:46.164Z,16.30
2019-02-26T14:28:53.524Z,16.20
2019-02-26T14:30:00.899Z,16.20
2019-02-26T14:31:07.881Z,16.20
2019-02-26T14:32:15.198Z,16.10
2019-02-26T14:33:22.067Z,16.10
2019-02-26T14:34:29.405Z,16.10
2019-02-26T14:35:36.336Z,16.10
2019-02-26T14:36:43.552Z,16.10
2019-02-26T14:37:50.498Z,16.10
2019-02-26T14:38:57.971Z,16.20
2019-02-26T14:40:05.830Z,16.40
2019-02-26T14:41:12.593Z,16.50
2019-02-26T14:42:21.565Z,16.50
2019-02-26T14:43:27.997Z,16.50
2019-02-26T14:44:35.460Z,16.40
2019-02-26T14:45:43.175Z,16.40
2019-02-26T14:46:50.424Z,16.40
2019-02-26T14:47:58.018Z,16.50
2019-02-26T14:49:05.108Z,16.40
2019-02-26T14:50:15.300Z,16.40
2019-02-26T14:51:22.257Z,16.40
2019-02-26T14:52:29.830Z,16.50
2019-02-26T14:53:36.811Z,16.60
2019-02-26T14:54:43.754Z,16.50
2019-02-26T14:55:50.743Z,16.40
2019-02-26T14:56:58.113Z,16.30
2019-02-26T14:58:05.241Z,16.30
2019-02-26T14:59:12.889Z,16.40
2019-02-26T15:00:23.945Z,16.40
2019-02-26T15:01:30.622Z,16.40
2019-02-26T15:02:37.877Z,16.40
2019-02-26T15:03:45.297Z,16.30
2019-02-26T15:04:52.010Z,16.30
2019-02-26T15:05:59.235Z,16.30